Rachel — D5CG4 — position and weather

sailwx.info

Track history (hours):
 
Tides and Currents Weather Stations Pressure Air Temp Water Temp Dewpoint Dewpoint Depression Visibility Wind Speed Wind Dir Waves Ship Positions

Rachel

Last reported at 2014-Jul-19 13:23 UTC. Time now 2014-Jul-28 10:30 UTC.
Position N 08°59' E 122°58'.
Warning: this ship's position is 8 days out of date.

Length 189 m; draft 6.7 m.

Type: Cargo ship. MMSI: 636015692.

Date/timePositionNaut miles runAvg speedWind from/ knotsBaromVisibWave heightAir tempDewpointWater temp
2014-Jul-19 13:23N 08°59' E 122°58'2011.0
2014-Jul-19 11:33N 09°02' E 123°18'1111.2
2014-Jul-19 10:33N 09°12' E 123°23'1212.2
2014-Jul-19 09:34N 09°23' E 123°18'1313.0
2014-Jul-19 08:33N 09°36' E 123°15'  
2014-Jul-15 01:30N 09°47' E 123°15'1111.9
2014-Jul-15 00:33N 09°35' E 123°15'1211.8
2014-Jul-14 23:34N 09°24' E 123°18'1110.5
2014-Jul-14 22:33N 09°15' E 123°23'1111.4
2014-Jul-14 21:34N 09°04' E 123°21'  
Track history (hours):
 
Tides and Currents Weather Stations Pressure Air Temp Water Temp Dewpoint Dewpoint Depression Visibility Wind Speed Wind Dir Waves Ship Positions

Rachel

Last reported at 2014-Jul-19 13:23 UTC. Time now 2014-Jul-28 10:30 UTC.
Position N 08°59' E 122°58'.
Warning: this ship's position is 8 days out of date.

Length 189 m; draft 6.7 m.

Type: Cargo ship. MMSI: 636015692.

Date/timePositionNaut miles runAvg speedWind from/ knotsBaromVisibWave heightAir tempDewpointWater temp
2014-Jul-19 13:23N 08°59' E 122°58'2011.0
2014-Jul-19 11:33N 09°02' E 123°18'1111.2
2014-Jul-19 10:33N 09°12' E 123°23'1212.2
2014-Jul-19 09:34N 09°23' E 123°18'1313.0
2014-Jul-19 08:33N 09°36' E 123°15'  
2014-Jul-15 01:30N 09°47' E 123°15'1111.9
2014-Jul-15 00:33N 09°35' E 123°15'1211.8
2014-Jul-14 23:34N 09°24' E 123°18'1110.5
2014-Jul-14 22:33N 09°15' E 123°23'1111.4
2014-Jul-14 21:34N 09°04' E 123°21'  

Dump ship's entire track history